createdAt,value
2023-10-20T00:00:16.022Z,18.83
2023-10-20T00:02:44.576Z,18.90
2023-10-20T00:05:15.334Z,23.60
2023-10-20T00:07:43.154Z,18.88
2023-10-20T00:10:12.865Z,21.00
2023-10-20T00:12:41.253Z,19.88
2023-10-20T00:15:15.002Z,20.05
2023-10-20T00:17:43.846Z,21.85
2023-10-20T00:20:14.012Z,23.15
2023-10-20T00:22:42.649Z,18.63
2023-10-20T00:25:13.050Z,19.60
2023-10-20T00:27:42.403Z,19.35
2023-10-20T00:30:12.554Z,17.83
2023-10-20T00:32:41.525Z,20.48
2023-10-20T00:35:10.753Z,19.67
2023-10-20T00:37:40.261Z,21.02
2023-10-20T00:40:11.023Z,18.90
2023-10-20T00:42:39.615Z,15.68
2023-10-20T00:45:09.507Z,16.33
2023-10-20T00:47:40.507Z,19.38
2023-10-20T00:50:12.777Z,16.52
2023-10-20T00:52:45.183Z,21.23
2023-10-20T00:55:15.887Z,22.23
2023-10-20T00:57:45.715Z,19.75
2023-10-20T01:00:15.150Z,20.60
2023-10-20T01:02:43.261Z,17.92
2023-10-20T01:05:16.194Z,20.02
2023-10-20T01:07:45.954Z,18.38
2023-10-20T01:10:15.086Z,19.63
2023-10-20T01:12:43.033Z,21.90
2023-10-20T01:15:12.370Z,21.25
2023-10-20T01:17:40.682Z,20.77
2023-10-20T01:20:10.273Z,22.60
2023-10-20T01:22:37.975Z,21.65
2023-10-20T01:25:08.262Z,26.25
2023-10-20T01:27:36.649Z,21.88
2023-10-20T01:30:04.924Z,20.80
2023-10-20T01:32:32.760Z,25.95
2023-10-20T01:35:01.382Z,31.08
2023-10-20T01:37:29.737Z,24.73
2023-10-20T01:39:57.607Z,22.58
2023-10-20T01:42:26.982Z,33.40
2023-10-20T01:44:54.659Z,22.95
2023-10-20T01:47:22.319Z,30.02
2023-10-20T01:49:50.766Z,26.77
2023-10-20T01:52:18.894Z,26.85
2023-10-20T01:54:47.213Z,27.75
2023-10-20T01:57:14.922Z,26.70
2023-10-20T01:59:43.880Z,25.83
2023-10-20T02:02:12.770Z,30.70
2023-10-20T02:04:40.475Z,31.52
2023-10-20T02:07:08.200Z,24.20
2023-10-20T02:09:35.929Z,26.02
2023-10-20T02:12:05.227Z,25.35
2023-10-20T02:14:34.395Z,23.80
2023-10-20T02:17:03.849Z,24.55
2023-10-20T02:19:32.190Z,26.88
2023-10-20T02:22:00.993Z,26.55
2023-10-20T02:24:29.149Z,20.60
2023-10-20T02:26:56.949Z,22.67
2023-10-20T02:29:24.887Z,22.95
2023-10-20T02:31:52.897Z,23.33
2023-10-20T02:34:22.058Z,32.17
2023-10-20T02:36:50.430Z,24.88
2023-10-20T02:39:18.348Z,24.25
2023-10-20T02:41:46.353Z,24.05
2023-10-20T02:44:15.019Z,25.52
2023-10-20T02:46:43.182Z,22.52
2023-10-20T02:49:11.164Z,23.23
2023-10-20T02:51:40.577Z,27.23
2023-10-20T02:54:11.065Z,25.52
2023-10-20T02:56:38.993Z,28.25
2023-10-20T02:59:06.741Z,28.88
2023-10-20T03:01:34.435Z,27.85
2023-10-20T03:04:02.364Z,23.73
2023-10-20T03:06:30.137Z,24.75
2023-10-20T03:08:59.231Z,26.45
2023-10-20T03:11:27.042Z,22.88
2023-10-20T03:13:54.774Z,26.38
2023-10-20T03:16:22.495Z,29.48
2023-10-20T03:18:50.198Z,26.27
2023-10-20T03:21:21.836Z,26.48
2023-10-20T03:23:49.465Z,26.08
2023-10-20T03:26:20.231Z,25.92
2023-10-20T03:28:48.024Z,26.90
2023-10-20T03:31:16.478Z,30.17
2023-10-20T03:33:44.240Z,24.58
2023-10-20T03:36:13.438Z,28.92
2023-10-20T03:38:42.170Z,25.38
2023-10-20T03:41:11.500Z,26.20
2023-10-20T03:43:40.635Z,26.70
2023-10-20T03:46:08.338Z,26.80
2023-10-20T03:48:36.930Z,27.90
2023-10-20T03:51:08.768Z,29.38
2023-10-20T03:53:47.413Z,25.92
2023-10-20T03:56:16.626Z,26.27
2023-10-20T03:58:47.771Z,33.70
2023-10-20T04:01:16.353Z,31.25
2023-10-20T04:03:51.691Z,31.83
2023-10-20T04:06:20.333Z,35.15
2023-10-20T04:08:48.293Z,36.33
2023-10-20T04:11:15.967Z,31.02
2023-10-20T04:13:45.437Z,31.50
2023-10-20T04:16:14.903Z,35.27
2023-10-20T04:18:43.677Z,33.08
2023-10-20T04:21:13.337Z,32.42
2023-10-20T04:23:41.470Z,33.53
2023-10-20T04:26:20.401Z,31.90
2023-10-20T04:29:03.890Z,39.72
2023-10-20T04:31:49.746Z,36.10
2023-10-20T04:34:35.218Z,43.50
2023-10-20T04:37:20.715Z,41.47
2023-10-20T04:40:06.106Z,41.97
2023-10-20T04:42:56.753Z,36.47
2023-10-20T04:48:32.843Z,38.63
2023-10-20T04:51:10.648Z,36.15
2023-10-20T04:53:49.943Z,39.95
2023-10-20T04:56:32.400Z,36.20
2023-10-20T04:59:05.844Z,40.42
2023-10-20T05:01:44.588Z,39.50
2023-10-20T05:04:17.516Z,42.72
2023-10-20T05:06:46.185Z,38.25
2023-10-20T05:09:16.749Z,40.72
2023-10-20T05:14:12.187Z,42.28
2023-10-20T05:16:41.408Z,46.17
2023-10-20T05:19:09.115Z,41.67
2023-10-20T05:21:39.424Z,40.67
2023-10-20T05:24:09.514Z,42.72
2023-10-20T05:26:37.429Z,34.92
2023-10-20T05:29:05.299Z,45.10
2023-10-20T05:31:33.367Z,43.00
2023-10-20T05:34:03.463Z,48.30
2023-10-20T05:36:31.953Z,39.78
2023-10-20T05:39:00.925Z,42.35
2023-10-20T05:41:31.501Z,41.42
2023-10-20T05:43:59.415Z,39.00
2023-10-20T05:46:27.195Z,39.03
2023-10-20T05:48:55.451Z,42.83
2023-10-20T05:51:25.123Z,37.08
2023-10-20T05:53:54.403Z,39.07
2023-10-20T05:56:22.431Z,36.90
2023-10-20T05:58:51.243Z,36.60
2023-10-20T06:01:19.544Z,34.22
2023-10-20T06:03:47.773Z,33.65
2023-10-20T06:06:15.748Z,40.05
2023-10-20T06:08:45.159Z,37.80
2023-10-20T06:11:13.090Z,34.30
2023-10-20T06:13:40.908Z,42.30
2023-10-20T06:16:11.756Z,34.30
2023-10-20T06:18:41.022Z,35.30
2023-10-20T06:21:14.074Z,35.05
2023-10-20T06:23:42.514Z,33.20
2023-10-20T06:26:12.286Z,40.17
2023-10-20T06:28:40.163Z,35.55
2023-10-20T06:31:28.875Z,40.92
2023-10-20T06:34:01.923Z,38.22
2023-10-20T06:36:30.058Z,38.35
2023-10-20T06:38:57.912Z,33.08
2023-10-20T06:41:27.938Z,41.05
2023-10-20T06:43:55.967Z,35.83
2023-10-20T06:46:26.265Z,37.42
2023-10-20T06:48:53.972Z,37.25
2023-10-20T06:51:21.725Z,43.22
2023-10-20T06:53:49.975Z,36.90
2023-10-20T06:56:22.091Z,42.75
2023-10-20T06:58:56.305Z,40.90
2023-10-20T07:01:24.021Z,37.78
2023-10-20T07:03:51.880Z,42.45
2023-10-20T07:06:19.981Z,42.15
2023-10-20T07:08:49.567Z,37.65
2023-10-20T07:11:17.684Z,38.60
2023-10-20T07:13:45.987Z,38.92
2023-10-20T07:16:15.356Z,36.85
2023-10-20T07:18:44.111Z,39.65
2023-10-20T07:21:13.080Z,41.70
2023-10-20T07:23:40.748Z,34.80
2023-10-20T07:26:08.706Z,39.78
2023-10-20T07:28:36.622Z,38.70
2023-10-20T07:31:13.436Z,35.72
2023-10-20T07:33:42.963Z,37.30
2023-10-20T07:36:12.119Z,37.20
2023-10-20T07:38:40.587Z,35.80
2023-10-20T07:41:12.445Z,35.45
2023-10-20T07:43:40.569Z,38.65
2023-10-20T07:46:16.626Z,32.25
2023-10-20T07:48:46.148Z,38.53
2023-10-20T07:51:14.099Z,40.47
2023-10-20T07:53:42.288Z,40.28
2023-10-20T07:56:11.008Z,38.28
2023-10-20T07:58:38.856Z,38.22
2023-10-20T08:01:07.841Z,38.55
2023-10-20T08:03:36.023Z,39.70
2023-10-20T08:06:06.940Z,38.08
2023-10-20T08:08:35.663Z,38.20
2023-10-20T08:11:07.857Z,34.85
2023-10-20T08:13:36.013Z,36.17
2023-10-20T08:16:05.368Z,35.33
2023-10-20T08:18:35.254Z,37.05
2023-10-20T08:21:11.909Z,40.45
2023-10-20T08:23:40.628Z,32.58
2023-10-20T08:26:15.149Z,33.92
2023-10-20T08:28:43.057Z,37.70
2023-10-20T08:31:14.357Z,31.95
2023-10-20T08:33:42.328Z,37.50
2023-10-20T08:36:14.009Z,32.83
2023-10-20T08:38:42.400Z,33.50
2023-10-20T08:41:14.000Z,32.58
2023-10-20T08:43:42.709Z,31.60
2023-10-20T08:46:11.384Z,30.63
2023-10-20T08:48:40.957Z,27.85
2023-10-20T08:51:10.179Z,34.38
2023-10-20T08:53:39.953Z,31.45
2023-10-20T08:56:09.668Z,29.48
2023-10-20T08:58:37.977Z,30.33
2023-10-20T09:01:08.606Z,29.50
2023-10-20T09:03:42.087Z,28.17
2023-10-20T09:06:13.498Z,26.35
2023-10-20T09:08:44.828Z,24.45
2023-10-20T09:11:14.239Z,28.75
2023-10-20T09:13:47.759Z,30.02
2023-10-20T09:16:17.208Z,30.48
2023-10-20T09:18:50.760Z,28.17
2023-10-20T09:21:19.833Z,29.90
2023-10-20T09:24:02.078Z,26.40
2023-10-20T09:26:31.976Z,30.27
2023-10-20T09:29:00.444Z,27.70
2023-10-20T09:31:31.544Z,27.17
2023-10-20T09:34:00.246Z,26.23
2023-10-20T09:36:32.437Z,23.70
2023-10-20T09:39:06.172Z,26.80
2023-10-20T09:41:38.583Z,23.35
2023-10-20T09:44:08.857Z,23.55
2023-10-20T09:46:46.989Z,28.55
2023-10-20T09:49:20.569Z,25.30
2023-10-20T09:51:53.654Z,26.75
2023-10-20T09:54:26.969Z,25.73
2023-10-20T09:56:56.529Z,27.13
2023-10-20T09:59:29.564Z,25.38
2023-10-20T10:02:00.095Z,28.30
2023-10-20T10:04:34.837Z,27.45
2023-10-20T10:07:06.258Z,30.13
2023-10-20T10:09:40.275Z,31.15
2023-10-20T10:12:15.834Z,28.70
2023-10-20T10:14:56.961Z,31.65
2023-10-20T10:17:27.601Z,53.63
2023-10-20T10:19:57.586Z,28.45
2023-10-20T10:22:29.644Z,31.23
2023-10-20T10:25:04.679Z,28.73
2023-10-20T10:27:34.035Z,31.50
2023-10-20T10:30:06.654Z,40.60
2023-10-20T10:32:35.985Z,35.13
2023-10-20T10:35:05.607Z,32.05
2023-10-20T10:37:35.821Z,33.10
2023-10-20T10:40:09.906Z,31.15
2023-10-20T10:42:45.078Z,26.30
2023-10-20T10:45:24.148Z,27.30
2023-10-20T10:47:53.675Z,27.77
2023-10-20T10:50:22.620Z,29.00
2023-10-20T10:52:53.524Z,26.98
2023-10-20T10:55:27.010Z,25.25
2023-10-20T11:00:29.704Z,23.58
2023-10-20T11:02:59.615Z,23.75
2023-10-20T11:05:28.378Z,25.58
2023-10-20T11:08:02.875Z,23.55
2023-10-20T11:10:35.889Z,23.60
2023-10-20T11:13:08.324Z,22.13
2023-10-20T11:15:37.065Z,24.38
2023-10-20T11:18:07.235Z,23.00
2023-10-20T11:20:39.272Z,24.90
2023-10-20T11:23:10.750Z,23.80
2023-10-20T11:25:42.832Z,20.98
2023-10-20T11:28:17.558Z,23.23
2023-10-20T11:30:47.060Z,21.27
2023-10-20T11:33:18.935Z,21.92
2023-10-20T11:35:47.193Z,20.52
2023-10-20T11:38:16.348Z,20.77
2023-10-20T11:40:51.784Z,18.92
2023-10-20T11:43:19.715Z,18.20
2023-10-20T11:45:47.607Z,19.58
2023-10-20T11:48:15.800Z,19.10
2023-10-20T11:50:47.810Z,17.52
2023-10-20T11:53:16.078Z,18.55
2023-10-20T11:55:45.774Z,16.95
2023-10-20T11:58:14.026Z,16.50
2023-10-20T12:00:43.757Z,18.15
2023-10-20T12:03:11.944Z,17.38
2023-10-20T12:05:40.924Z,21.63
2023-10-20T12:08:08.848Z,18.50
2023-10-20T12:10:36.710Z,19.40
2023-10-20T12:13:06.683Z,19.27
2023-10-20T12:15:35.769Z,18.25
2023-10-20T12:18:04.228Z,19.23
2023-10-20T12:20:32.574Z,17.27
2023-10-20T12:23:00.976Z,22.30
2023-10-20T12:25:28.705Z,17.80
2023-10-20T12:27:56.644Z,16.27
2023-10-20T12:30:27.685Z,17.42
2023-10-20T12:32:55.702Z,18.15
2023-10-20T12:35:23.630Z,18.80
2023-10-20T12:37:51.649Z,16.83
2023-10-20T12:40:19.700Z,19.70
2023-10-20T12:42:47.390Z,18.90
2023-10-20T12:45:15.246Z,19.48
2023-10-20T12:47:44.628Z,19.13
2023-10-20T12:50:12.840Z,24.08
2023-10-20T12:52:40.545Z,20.52
2023-10-20T12:55:12.396Z,18.23
2023-10-20T12:57:41.442Z,16.95
2023-10-20T13:00:12.103Z,17.95
2023-10-20T13:02:41.521Z,18.48
2023-10-20T13:05:11.560Z,17.85
2023-10-20T13:07:40.004Z,18.25
2023-10-20T13:10:09.615Z,19.83
2023-10-20T13:12:37.358Z,22.52
2023-10-20T13:15:05.752Z,23.13
2023-10-20T13:17:34.615Z,17.55
2023-10-20T13:20:02.442Z,14.27
2023-10-20T13:22:32.464Z,14.80
2023-10-20T13:25:23.073Z,12.27
2023-10-20T13:27:52.271Z,18.10
2023-10-20T13:30:20.234Z,12.70
2023-10-20T13:32:48.068Z,12.40
2023-10-20T13:35:17.621Z,14.77
2023-10-20T13:37:46.765Z,11.23
2023-10-20T13:40:14.719Z,13.98
2023-10-20T13:42:42.641Z,13.07
2023-10-20T13:45:10.960Z,12.05
2023-10-20T13:47:41.337Z,9.63
2023-10-20T13:52:38.676Z,8.38
2023-10-20T13:55:09.745Z,7.13
2023-10-20T13:57:37.440Z,8.23
2023-10-20T14:00:08.878Z,9.05
2023-10-20T14:02:37.054Z,7.90
2023-10-20T14:05:08.953Z,6.43
2023-10-20T14:07:37.261Z,6.43
2023-10-20T14:10:06.133Z,5.63
2023-10-20T14:12:35.563Z,7.15
2023-10-20T14:15:04.900Z,4.93
2023-10-20T14:17:33.525Z,4.10
2023-10-20T14:20:04.549Z,4.65
2023-10-20T14:22:33.394Z,6.20
2023-10-20T14:25:01.909Z,3.83
2023-10-20T14:27:29.944Z,3.70
2023-10-20T14:29:59.583Z,2.60
2023-10-20T14:32:27.718Z,2.88
2023-10-20T14:34:56.200Z,1.60
2023-10-20T14:37:25.075Z,1.23
2023-10-20T14:39:53.338Z,1.70
2023-10-20T14:42:21.179Z,1.23
2023-10-20T14:44:51.473Z,3.58
2023-10-20T14:47:20.789Z,0.70
2023-10-20T14:49:48.637Z,1.33
2023-10-20T14:52:17.298Z,7.32
2023-10-20T14:54:45.818Z,11.00
2023-10-20T14:57:13.619Z,4.65
2023-10-20T14:59:41.405Z,1.00
2023-10-20T15:02:09.244Z,2.28
2023-10-20T15:04:38.535Z,2.55
2023-10-20T15:07:06.965Z,1.85
2023-10-20T15:09:34.803Z,1.20
2023-10-20T15:12:03.377Z,3.65
2023-10-20T15:14:31.208Z,1.05
2023-10-20T15:16:58.964Z,3.70
2023-10-20T15:19:26.799Z,2.42
2023-10-20T15:21:55.942Z,1.52
2023-10-20T15:24:23.617Z,1.08
2023-10-20T15:26:52.896Z,0.95
2023-10-20T15:29:21.306Z,1.08
2023-10-20T15:31:49.379Z,0.50
2023-10-20T15:34:17.776Z,1.35
2023-10-20T15:36:50.935Z,0.68
2023-10-20T15:39:35.979Z,2.47
2023-10-20T15:42:11.868Z,2.65
2023-10-20T15:44:39.776Z,1.73
2023-10-20T15:47:07.634Z,2.15
2023-10-20T15:49:35.787Z,1.95
2023-10-20T15:52:04.586Z,1.00
2023-10-20T15:54:35.719Z,2.15
2023-10-20T15:57:04.417Z,1.08
2023-10-20T15:59:34.016Z,1.35
2023-10-20T16:02:02.006Z,0.75
2023-10-20T16:04:30.051Z,1.10
2023-10-20T16:06:58.032Z,0.65
2023-10-20T16:09:25.851Z,2.63
2023-10-20T16:11:54.966Z,1.08
2023-10-20T16:14:22.887Z,1.00
2023-10-20T16:16:50.940Z,1.65
2023-10-20T16:19:18.917Z,0.80
2023-10-20T16:21:46.923Z,2.15
2023-10-20T16:24:15.101Z,3.13
2023-10-20T16:26:42.969Z,3.88
2023-10-20T16:29:12.563Z,1.58
2023-10-20T16:31:40.326Z,1.00
2023-10-20T16:34:07.963Z,0.82
2023-10-20T16:36:36.241Z,2.63
2023-10-20T16:39:05.931Z,3.78
2023-10-20T16:41:34.645Z,6.63
2023-10-20T16:44:02.624Z,2.55
2023-10-20T16:46:33.141Z,1.60
2023-10-20T16:49:03.262Z,2.25
2023-10-20T16:51:31.563Z,1.52
2023-10-20T16:53:59.435Z,2.95
2023-10-20T16:56:28.708Z,3.05
2023-10-20T16:58:56.498Z,1.35
2023-10-20T17:01:28.345Z,0.98
2023-10-20T17:03:57.624Z,1.10
2023-10-20T17:06:27.951Z,1.52
2023-10-20T17:08:57.701Z,2.05
2023-10-20T17:11:26.236Z,1.90
2023-10-20T17:13:54.303Z,2.05
2023-10-20T17:16:22.396Z,1.88
2023-10-20T17:18:50.787Z,1.95
2023-10-20T17:21:19.992Z,5.75
2023-10-20T17:23:47.947Z,6.40
2023-10-20T17:26:16.245Z,5.32
2023-10-20T17:28:44.191Z,4.22
2023-10-20T17:31:14.995Z,3.38
2023-10-20T17:33:46.026Z,2.95
2023-10-20T17:36:14.779Z,3.78
2023-10-20T17:38:48.926Z,3.83
2023-10-20T17:41:17.437Z,2.78
2023-10-20T17:43:45.746Z,3.28
2023-10-20T17:46:13.745Z,3.58
2023-10-20T17:48:43.081Z,3.25
2023-10-20T17:51:11.869Z,5.72
2023-10-20T17:53:39.908Z,4.75
2023-10-20T17:56:12.945Z,4.45
2023-10-20T17:58:40.792Z,3.95
2023-10-20T18:01:10.798Z,4.22
2023-10-20T18:03:42.295Z,4.13
2023-10-20T18:06:11.716Z,8.82
2023-10-20T18:08:40.298Z,5.85
2023-10-20T18:11:11.449Z,6.28
2023-10-20T18:13:43.472Z,5.22
2023-10-20T18:16:13.814Z,5.70
2023-10-20T18:18:42.700Z,4.18
2023-10-20T18:21:10.673Z,4.10
2023-10-20T18:23:40.394Z,3.95
2023-10-20T18:26:09.982Z,5.07
2023-10-20T18:28:38.085Z,4.43
2023-10-20T18:31:13.609Z,4.63
2023-10-20T18:33:42.662Z,4.15
2023-10-20T18:36:13.651Z,4.47
2023-10-20T18:38:41.552Z,3.28
2023-10-20T18:41:16.414Z,5.38
2023-10-20T18:43:44.421Z,5.32
2023-10-20T18:46:14.047Z,3.33
2023-10-20T18:48:42.436Z,3.47
2023-10-20T18:51:12.934Z,4.43
2023-10-20T18:53:43.652Z,7.50
2023-10-20T18:56:11.846Z,4.22
2023-10-20T18:58:41.240Z,6.13
2023-10-20T19:01:09.110Z,6.63
2023-10-20T19:03:37.463Z,4.10
2023-10-20T19:06:12.114Z,4.87
2023-10-20T19:08:40.688Z,5.35
2023-10-20T19:11:11.524Z,5.45
2023-10-20T19:13:41.326Z,6.32
2023-10-20T19:16:09.230Z,8.07
2023-10-20T19:18:37.351Z,6.40
2023-10-20T19:21:12.438Z,7.03
2023-10-20T19:23:41.904Z,6.88
2023-10-20T19:26:12.471Z,14.38
2023-10-20T19:31:10.671Z,4.13
2023-10-20T19:33:39.453Z,3.65
2023-10-20T19:36:11.301Z,4.05
2023-10-20T19:38:39.807Z,5.30
2023-10-20T19:41:09.452Z,6.30
2023-10-20T19:43:37.152Z,4.93
2023-10-20T19:46:08.653Z,6.90
2023-10-20T19:48:38.374Z,4.55
2023-10-20T19:51:07.006Z,6.40
2023-10-20T19:53:36.100Z,3.47
2023-10-20T19:56:03.950Z,4.75
2023-10-20T19:58:31.676Z,3.58
2023-10-20T20:00:59.832Z,3.17
2023-10-20T20:03:29.349Z,6.15
2023-10-20T20:06:10.218Z,3.67
2023-10-20T20:08:38.289Z,4.53
2023-10-20T20:11:06.082Z,3.88
2023-10-20T20:13:34.367Z,4.63
2023-10-20T20:16:12.989Z,2.50
2023-10-20T20:18:45.176Z,4.90
2023-10-20T20:21:13.553Z,5.20
2023-10-20T20:23:41.449Z,2.95
2023-10-20T20:26:09.463Z,2.70
2023-10-20T20:28:37.846Z,2.97
2023-10-20T20:31:05.818Z,2.85
2023-10-20T20:33:34.031Z,4.18
2023-10-20T20:36:04.072Z,4.03
2023-10-20T20:38:32.099Z,3.40
2023-10-20T20:41:00.119Z,3.25
2023-10-20T20:43:28.252Z,2.65
2023-10-20T20:45:57.709Z,2.40
2023-10-20T20:48:25.785Z,2.87
2023-10-20T20:50:53.664Z,3.85
2023-10-20T20:53:22.722Z,2.72
2023-10-20T20:55:50.729Z,3.33
2023-10-20T20:58:18.404Z,3.47
2023-10-20T21:00:46.207Z,3.53
2023-10-20T21:03:14.719Z,5.43
2023-10-20T21:05:42.999Z,3.83
2023-10-20T21:08:11.154Z,5.53
2023-10-20T21:10:40.464Z,3.40
2023-10-20T21:13:08.591Z,4.70
2023-10-20T21:15:37.966Z,4.32
2023-10-20T21:18:07.425Z,4.97
2023-10-20T21:20:38.502Z,5.05
2023-10-20T21:23:06.317Z,4.60
2023-10-20T21:25:37.351Z,4.63
2023-10-20T21:28:07.667Z,4.43
2023-10-20T21:30:37.707Z,3.95
2023-10-20T21:33:05.707Z,4.65
2023-10-20T21:35:38.692Z,4.18
2023-10-20T21:38:07.159Z,4.20
2023-10-20T21:40:34.991Z,4.53
2023-10-20T21:43:04.638Z,5.45
2023-10-20T21:45:33.816Z,4.67
2023-10-20T21:48:01.832Z,3.08
2023-10-20T21:50:29.803Z,3.85
2023-10-20T21:52:57.500Z,1.67
2023-10-20T21:55:25.330Z,2.65
2023-10-20T21:57:53.335Z,7.55
2023-10-20T22:00:24.706Z,2.33
2023-10-20T22:02:53.936Z,2.75
2023-10-20T22:05:21.840Z,2.42
2023-10-20T22:07:49.532Z,4.75
2023-10-20T22:10:17.385Z,1.67
2023-10-20T22:12:45.684Z,1.95
2023-10-20T22:15:13.510Z,1.23
2023-10-20T22:17:41.796Z,2.13
2023-10-20T22:20:11.829Z,4.28
2023-10-20T22:22:39.517Z,1.88
2023-10-20T22:25:07.862Z,2.42
2023-10-20T22:27:35.522Z,3.97
2023-10-20T22:30:03.258Z,3.13
2023-10-20T22:32:32.305Z,3.38
2023-10-20T22:35:02.736Z,8.00
2023-10-20T22:37:32.121Z,2.33
2023-10-20T22:40:00.250Z,2.75
2023-10-20T22:42:28.262Z,3.88
2023-10-20T22:44:57.322Z,2.33
2023-10-20T22:47:25.638Z,1.77
2023-10-20T22:49:53.429Z,2.50
2023-10-20T22:52:21.319Z,3.13
2023-10-20T22:54:50.362Z,2.97
2023-10-20T22:57:18.054Z,4.85
2023-10-20T22:59:45.798Z,3.33
2023-10-20T23:02:13.732Z,2.80
2023-10-20T23:04:41.574Z,3.00
2023-10-20T23:07:09.490Z,2.55
2023-10-20T23:09:37.285Z,1.70
2023-10-20T23:12:07.349Z,2.45
2023-10-20T23:14:35.724Z,4.07
2023-10-20T23:17:03.524Z,2.40
2023-10-20T23:19:31.186Z,3.33
2023-10-20T23:21:59.031Z,1.80
2023-10-20T23:24:26.918Z,2.10
2023-10-20T23:26:55.231Z,2.35
2023-10-20T23:29:24.855Z,2.17
2023-10-20T23:31:52.727Z,5.75
2023-10-20T23:34:20.429Z,3.17
2023-10-20T23:36:48.094Z,3.20
2023-10-20T23:39:16.166Z,4.07
2023-10-20T23:41:43.797Z,2.75
2023-10-20T23:44:11.660Z,3.38
2023-10-20T23:46:40.670Z,2.03
2023-10-20T23:49:08.342Z,2.70
2023-10-20T23:51:36.667Z,2.00
2023-10-20T23:54:04.574Z,2.58
2023-10-20T23:56:32.248Z,4.45
2023-10-20T23:59:00.214Z,2.95
